createdAt,value
2018-12-27T00:00:31.412Z,98472.20
2018-12-27T00:03:36.661Z,98488.74
2018-12-27T00:06:42.021Z,98478.25
2018-12-27T00:09:47.296Z,98482.97
2018-12-27T00:12:52.756Z,98481.99
2018-12-27T00:15:58.032Z,98488.20
2018-12-27T00:19:03.446Z,98494.25
2018-12-27T00:22:08.720Z,98499.50
2018-12-27T00:25:14.239Z,98490.83
2018-12-27T00:28:19.519Z,98502.25
2018-12-27T00:31:25.082Z,98498.66
2018-12-27T00:34:30.571Z,98499.03
2018-12-27T00:37:36.233Z,98499.56
2018-12-27T00:40:41.712Z,98493.02
2018-12-27T00:43:47.637Z,98492.47
2018-12-27T00:46:53.117Z,98496.41
2018-12-27T00:49:58.689Z,98498.06
2018-12-27T00:53:04.168Z,98497.69
2018-12-27T00:56:09.835Z,98505.08
2018-12-27T00:59:15.311Z,98501.15
2018-12-27T01:02:20.938Z,98495.77
2018-12-27T01:05:26.418Z,98484.88
2018-12-27T01:08:32.031Z,98489.28
2018-12-27T01:11:37.512Z,98489.35
2018-12-27T01:14:43.131Z,98487.00
2018-12-27T01:17:48.618Z,98487.81
2018-12-27T01:20:54.231Z,98488.72
2018-12-27T01:24:02.687Z,98484.45
2018-12-27T01:27:08.249Z,98491.34
2018-12-27T01:30:13.823Z,98492.58
2018-12-27T01:33:19.495Z,98486.09
2018-12-27T01:36:24.976Z,98486.53
2018-12-27T01:39:30.597Z,98486.09
2018-12-27T01:42:36.076Z,98487.41
2018-12-27T01:45:41.695Z,98482.56
2018-12-27T01:48:47.177Z,98478.63
2018-12-27T01:51:52.792Z,98485.19
2018-12-27T01:54:58.272Z,98484.25
2018-12-27T01:58:03.892Z,98482.50
2018-12-27T02:01:09.373Z,98475.07
2018-12-27T02:04:15.012Z,98478.16
2018-12-27T02:07:20.499Z,98483.27
2018-12-27T02:10:26.091Z,98474.56
2018-12-27T02:13:31.572Z,98474.56
2018-12-27T02:16:37.188Z,98480.66
2018-12-27T02:19:42.668Z,98470.09
2018-12-27T02:22:48.395Z,98477.05
2018-12-27T02:25:53.874Z,98477.86
2018-12-27T02:28:59.490Z,98477.86
2018-12-27T02:32:05.014Z,98469.99
2018-12-27T02:35:10.590Z,98468.15
2018-12-27T02:38:16.075Z,98473.33
2018-12-27T02:41:21.637Z,98474.20
2018-12-27T02:44:27.117Z,98465.52
2018-12-27T02:47:32.889Z,98456.75
2018-12-27T02:50:38.367Z,98456.69
2018-12-27T02:53:43.988Z,98457.52
2018-12-27T02:56:49.515Z,98460.04
2018-12-27T02:59:55.188Z,98457.35
2018-12-27T03:03:00.669Z,98450.33
2018-12-27T03:06:06.387Z,98457.35
2018-12-27T03:09:11.886Z,98452.04
2018-12-27T03:12:17.492Z,98450.59
2018-12-27T03:15:22.988Z,98444.44
2018-12-27T03:18:28.592Z,98450.02
2018-12-27T03:21:34.074Z,98446.41
2018-12-27T03:24:39.793Z,98441.17
2018-12-27T03:27:45.274Z,98435.02
2018-12-27T03:30:50.899Z,98424.89
2018-12-27T03:33:56.376Z,98424.38
2018-12-27T03:37:01.983Z,98423.47
2018-12-27T03:40:07.464Z,98428.98
2018-12-27T03:43:13.188Z,98429.75
2018-12-27T03:46:18.665Z,98430.16
2018-12-27T03:49:24.284Z,98429.57
2018-12-27T03:52:30.257Z,98427.72
2018-12-27T03:55:35.821Z,98427.64
2018-12-27T03:58:41.307Z,98421.89
2018-12-27T04:01:47.299Z,98427.47
2018-12-27T04:04:52.780Z,98425.57
2018-12-27T04:07:58.503Z,98428.56
2018-12-27T04:11:04.011Z,98427.14
2018-12-27T04:14:09.601Z,98427.14
2018-12-27T04:17:14.928Z,98433.09
2018-12-27T04:20:20.391Z,98426.45
2018-12-27T04:23:26.776Z,98424.23
2018-12-27T04:26:32.128Z,98423.31
2018-12-27T04:29:37.426Z,98426.34
2018-12-27T04:32:44.302Z,98436.30
2018-12-27T04:35:51.085Z,98431.45
2018-12-27T04:38:57.070Z,98427.04
2018-12-27T04:42:02.880Z,98423.43
2018-12-27T04:45:08.377Z,98423.83
2018-12-27T04:48:13.657Z,98425.94
2018-12-27T04:51:19.025Z,98420.69
2018-12-27T04:54:24.289Z,98425.39
2018-12-27T04:57:29.756Z,98419.23
2018-12-27T05:00:35.034Z,98417.38
2018-12-27T05:03:40.459Z,98412.52
2018-12-27T05:06:45.723Z,98413.25
2018-12-27T05:09:51.210Z,98403.59
2018-12-27T05:12:56.557Z,98404.83
2018-12-27T05:16:01.924Z,98409.09
2018-12-27T05:19:07.198Z,98410.41
2018-12-27T05:22:12.607Z,98406.39
2018-12-27T05:25:17.893Z,98400.23
2018-12-27T05:28:23.316Z,98391.83
2018-12-27T05:31:28.592Z,98393.91
2018-12-27T05:34:33.987Z,98392.01
2018-12-27T05:37:39.263Z,98387.16
2018-12-27T05:40:44.676Z,98383.91
2018-12-27T05:43:49.948Z,98388.56
2018-12-27T05:46:55.308Z,98391.98
2018-12-27T05:50:00.586Z,98384.35
2018-12-27T05:53:06.055Z,98382.34
2018-12-27T05:56:11.325Z,98373.02
2018-12-27T05:59:16.743Z,98371.55
2018-12-27T06:02:22.018Z,98381.91
2018-12-27T06:05:27.447Z,98377.84
2018-12-27T06:08:32.715Z,98378.09
2018-12-27T06:11:38.222Z,98375.23
2018-12-27T06:14:43.491Z,98373.84
2018-12-27T06:17:48.915Z,98379.89
2018-12-27T06:20:54.189Z,98372.77
2018-12-27T06:23:59.539Z,98380.56
2018-12-27T06:27:04.815Z,98382.75
2018-12-27T06:30:10.189Z,98384.91
2018-12-27T06:33:15.470Z,98390.23
2018-12-27T06:36:20.977Z,98389.33
2018-12-27T06:39:26.256Z,98395.50
2018-12-27T06:42:31.672Z,98384.14
2018-12-27T06:45:36.949Z,98380.64
2018-12-27T06:48:42.355Z,98380.25
2018-12-27T06:51:47.636Z,98382.52
2018-12-27T06:54:53.049Z,98376.63
2018-12-27T06:57:58.319Z,98375.38
2018-12-27T07:01:03.736Z,98369.17
2018-12-27T07:04:09.012Z,98381.52
2018-12-27T07:07:14.424Z,98382.58
2018-12-27T07:10:19.700Z,98386.23
2018-12-27T07:13:25.421Z,98392.33
2018-12-27T07:16:30.763Z,98390.61
2018-12-27T07:19:36.213Z,98396.02
2018-12-27T07:22:41.488Z,98391.28
2018-12-27T07:25:46.903Z,98383.56
2018-12-27T07:28:52.256Z,98379.77
2018-12-27T07:31:57.693Z,98370.25
2018-12-27T07:35:02.975Z,98369.02
2018-12-27T07:38:08.493Z,98364.68
2018-12-27T07:41:13.769Z,98362.13
2018-12-27T07:44:19.182Z,98359.91
2018-12-27T07:47:24.512Z,98360.19
2018-12-27T07:50:29.969Z,98355.81
2018-12-27T07:53:35.292Z,98354.81
2018-12-27T07:56:40.782Z,98347.34
2018-12-27T07:59:46.121Z,98349.41
2018-12-27T08:02:51.758Z,98359.77
2018-12-27T08:05:57.041Z,98357.53
2018-12-27T08:09:02.450Z,98364.34
2018-12-27T08:12:07.728Z,98359.09
2018-12-27T08:15:13.309Z,98355.08
2018-12-27T08:18:18.587Z,98356.31
2018-12-27T08:21:24.028Z,98355.88
2018-12-27T08:24:29.349Z,98351.45
2018-12-27T08:27:34.817Z,98355.24
2018-12-27T08:30:40.092Z,98355.64
2018-12-27T08:33:45.506Z,98352.09
2018-12-27T08:36:50.788Z,98351.58
2018-12-27T08:39:56.196Z,98355.04
2018-12-27T08:43:01.481Z,98357.59
2018-12-27T08:46:06.929Z,98354.96
2018-12-27T08:49:12.206Z,98357.98
2018-12-27T08:52:17.600Z,98352.73
2018-12-27T08:55:22.878Z,98353.13
2018-12-27T08:58:28.365Z,98354.28
2018-12-27T09:01:33.640Z,98354.28
2018-12-27T09:04:39.054Z,98354.61
2018-12-27T09:07:44.328Z,98360.49
2018-12-27T09:10:49.746Z,98354.37
2018-12-27T09:13:55.024Z,98356.88
2018-12-27T09:17:00.640Z,98361.57
2018-12-27T09:20:09.302Z,98360.02
2018-12-27T09:23:14.705Z,98363.52
2018-12-27T09:26:20.308Z,98366.86
2018-12-27T09:29:25.665Z,98361.13
2018-12-27T09:32:30.941Z,98350.06
2018-12-27T09:35:36.751Z,98348.75
2018-12-27T09:38:42.025Z,98348.22
2018-12-27T09:41:47.497Z,98348.45
2018-12-27T09:44:52.842Z,98343.59
2018-12-27T09:47:58.337Z,98344.75
2018-12-27T09:51:03.641Z,98346.69
2018-12-27T09:54:09.072Z,98346.37
2018-12-27T09:57:14.422Z,98341.38
2018-12-27T10:00:19.865Z,98341.44
2018-12-27T10:03:25.147Z,98333.78
2018-12-27T10:06:30.562Z,98336.55
2018-12-27T10:09:35.839Z,98321.00
2018-12-27T10:12:41.245Z,98321.14
2018-12-27T10:15:46.536Z,98322.84
2018-12-27T10:18:51.933Z,98317.06
2018-12-27T10:21:57.264Z,98310.84
2018-12-27T10:25:02.734Z,98309.00
2018-12-27T10:28:08.005Z,98301.89
2018-12-27T10:31:13.492Z,98296.06
2018-12-27T10:34:18.833Z,98288.48
2018-12-27T10:37:24.214Z,98295.45
2018-12-27T10:40:29.490Z,98290.50
2018-12-27T10:43:34.996Z,98285.23
2018-12-27T10:46:40.278Z,98278.09
2018-12-27T10:49:46.003Z,98272.66
2018-12-27T10:52:51.318Z,98275.77
2018-12-27T10:55:56.799Z,98273.34
2018-12-27T10:59:02.073Z,98265.37
2018-12-27T11:02:07.477Z,98263.52
2018-12-27T11:05:12.759Z,98269.17
2018-12-27T11:08:18.159Z,98267.69
2018-12-27T11:11:23.440Z,98262.33
2018-12-27T11:14:29.113Z,98262.64
2018-12-27T11:17:34.465Z,98268.73
2018-12-27T11:20:40.054Z,98269.52
2018-12-27T11:23:45.379Z,98267.73
2018-12-27T11:26:50.854Z,98268.87
2018-12-27T11:29:56.126Z,98264.47
2018-12-27T11:33:01.548Z,98261.06
2018-12-27T11:36:06.818Z,98268.87
2018-12-27T11:39:12.182Z,98258.73
2018-12-27T11:42:17.460Z,98251.22
2018-12-27T11:45:22.914Z,98250.73
2018-12-27T11:48:28.188Z,98241.08
2018-12-27T11:51:33.607Z,98251.91
2018-12-27T11:54:38.883Z,98255.38
2018-12-27T11:57:44.397Z,98252.27
2018-12-27T12:00:49.673Z,98245.63
2018-12-27T12:03:55.084Z,98243.00
2018-12-27T12:07:00.360Z,98237.73
2018-12-27T12:10:08.234Z,98231.51
2018-12-27T12:13:13.514Z,98236.77
2018-12-27T12:16:19.026Z,98238.88
2018-12-27T12:19:24.306Z,98237.38
2018-12-27T12:22:29.817Z,98236.06
2018-12-27T12:25:35.168Z,98236.84
2018-12-27T12:28:40.867Z,98246.41
2018-12-27T12:31:46.145Z,98238.91
2018-12-27T12:34:51.606Z,98235.73
2018-12-27T12:37:57.492Z,98229.23
2018-12-27T12:41:02.909Z,98232.17
2018-12-27T12:44:08.189Z,98236.88
2018-12-27T12:47:13.598Z,98242.14
2018-12-27T12:50:18.875Z,98242.14
2018-12-27T12:53:24.281Z,98238.09
2018-12-27T12:56:29.613Z,98238.58
2018-12-27T12:59:35.085Z,98235.95
2018-12-27T13:02:40.359Z,98228.05
2018-12-27T13:05:45.775Z,98235.02
2018-12-27T13:08:51.051Z,98227.56
2018-12-27T13:11:56.459Z,98229.75
2018-12-27T13:15:01.733Z,98233.13
2018-12-27T13:18:07.149Z,98229.00
2018-12-27T13:21:12.428Z,98236.06
2018-12-27T13:24:17.850Z,98236.45
2018-12-27T13:27:23.163Z,98235.52
2018-12-27T13:30:28.984Z,98232.02
2018-12-27T13:33:34.513Z,98235.52
2018-12-27T13:36:42.620Z,98234.66
2018-12-27T13:39:47.901Z,98230.61
2018-12-27T13:42:53.343Z,98228.45
2018-12-27T13:45:58.619Z,98228.55
2018-12-27T13:49:04.078Z,98224.13
2018-12-27T13:52:09.358Z,98226.21
2018-12-27T13:55:15.993Z,98227.89
2018-12-27T13:58:21.272Z,98217.35
2018-12-27T14:01:26.680Z,98227.34
2018-12-27T14:04:31.969Z,98227.34
2018-12-27T14:07:37.628Z,98221.69
2018-12-27T14:10:42.901Z,98220.77
2018-12-27T14:13:48.369Z,98227.83
2018-12-27T14:16:53.649Z,98228.67
2018-12-27T14:19:59.054Z,98226.03
2018-12-27T14:23:04.336Z,98226.13
2018-12-27T14:26:10.105Z,98223.01
2018-12-27T14:29:15.376Z,98218.61
2018-12-27T14:32:20.846Z,98208.14
2018-12-27T14:35:26.274Z,98212.38
2018-12-27T14:38:31.737Z,98207.20
2018-12-27T14:41:37.021Z,98207.11
2018-12-27T14:44:42.380Z,98207.80
2018-12-27T14:47:47.723Z,98210.25
2018-12-27T14:50:53.126Z,98212.34
2018-12-27T14:53:58.404Z,98213.66
2018-12-27T14:57:03.807Z,98206.50
2018-12-27T15:00:11.997Z,98203.87
2018-12-27T15:03:17.464Z,98205.96
2018-12-27T15:06:22.759Z,98208.59
2018-12-27T15:09:28.119Z,98209.34
2018-12-27T15:12:33.477Z,98205.33
2018-12-27T15:15:38.955Z,98209.28
2018-12-27T15:18:44.243Z,98204.84
2018-12-27T15:21:49.638Z,98203.44
2018-12-27T15:24:54.916Z,98204.75
2018-12-27T15:28:00.735Z,98212.12
2018-12-27T15:31:06.587Z,98204.21
2018-12-27T15:34:12.038Z,98201.87
2018-12-27T15:37:17.312Z,98195.28
2018-12-27T15:40:22.733Z,98189.83
2018-12-27T15:43:28.008Z,98184.08
2018-12-27T15:46:33.418Z,98193.69
2018-12-27T15:49:38.701Z,98182.66
2018-12-27T15:52:44.121Z,98188.70
2018-12-27T15:55:49.399Z,98178.55
2018-12-27T15:58:54.910Z,98187.30
2018-12-27T16:02:00.228Z,98189.00
2018-12-27T16:05:05.799Z,98178.07
2018-12-27T16:08:11.090Z,98182.41
2018-12-27T16:11:16.432Z,98177.98
2018-12-27T16:14:21.715Z,98175.73
2018-12-27T16:17:27.171Z,98177.05
2018-12-27T16:20:32.504Z,98174.80
2018-12-27T16:23:37.963Z,98173.93
2018-12-27T16:26:43.245Z,98169.88
2018-12-27T16:29:48.854Z,98169.88
2018-12-27T16:32:54.138Z,98167.54
2018-12-27T16:35:59.544Z,98166.99
2018-12-27T16:39:06.368Z,98164.84
2018-12-27T16:42:11.804Z,98166.16
2018-12-27T16:45:17.081Z,98169.73
2018-12-27T16:48:24.272Z,98172.36
2018-12-27T16:51:29.557Z,98165.39
2018-12-27T16:54:34.918Z,98166.31
2018-12-27T16:57:40.284Z,98162.75
2018-12-27T17:00:45.801Z,98157.48
2018-12-27T17:03:51.120Z,98151.27
2018-12-27T17:06:56.571Z,98148.55
2018-12-27T17:10:01.853Z,98147.91
2018-12-27T17:13:07.369Z,98150.06
2018-12-27T17:16:12.970Z,98144.69
2018-12-27T17:19:18.366Z,98142.83
2018-12-27T17:22:23.646Z,98144.59
2018-12-27T17:25:29.159Z,98148.30
2018-12-27T17:28:34.437Z,98150.73
2018-12-27T17:31:39.948Z,98153.76
2018-12-27T17:34:45.228Z,98158.94
2018-12-27T17:37:50.635Z,98164.69
2018-12-27T17:40:55.911Z,98164.30
2018-12-27T17:44:01.431Z,98162.41
2018-12-27T17:47:06.728Z,98163.56
2018-12-27T17:50:12.116Z,98175.88
2018-12-27T17:53:17.442Z,98162.31
2018-12-27T17:56:22.909Z,98169.28
2018-12-27T17:59:28.188Z,98171.83
2018-12-27T18:02:34.414Z,98178.80
2018-12-27T18:05:39.753Z,98175.42
2018-12-27T18:08:45.141Z,98173.72
2018-12-27T18:11:50.422Z,98173.72
2018-12-27T18:15:02.450Z,98177.00
2018-12-27T18:18:07.797Z,98172.95
2018-12-27T18:21:13.161Z,98174.62
2018-12-27T18:24:18.444Z,98178.02
2018-12-27T18:27:23.834Z,98174.22
2018-12-27T18:30:29.111Z,98178.37
2018-12-27T18:33:34.616Z,98182.86
2018-12-27T18:36:39.900Z,98186.27
2018-12-27T18:39:45.312Z,98184.17
2018-12-27T18:42:50.592Z,98188.85
2018-12-27T18:45:56.410Z,98185.83
2018-12-27T18:49:01.691Z,98185.83
2018-12-27T18:52:07.099Z,98187.33
2018-12-27T18:55:12.445Z,98188.27
2018-12-27T18:58:17.892Z,98193.33
2018-12-27T19:01:23.171Z,98186.39
2018-12-27T19:04:28.540Z,98187.31
2018-12-27T19:07:33.807Z,98198.24
2018-12-27T19:10:39.204Z,98195.41
2018-12-27T19:13:44.771Z,98201.90
2018-12-27T19:16:50.165Z,98205.16
2018-12-27T19:19:55.445Z,98210.23
2018-12-27T19:23:08.392Z,98208.14
2018-12-27T19:26:13.669Z,98213.77
2018-12-27T19:29:19.127Z,98216.40
2018-12-27T19:32:24.418Z,98217.33
2018-12-27T19:35:33.012Z,98216.01
2018-12-27T19:38:38.286Z,98220.23
2018-12-27T19:41:43.681Z,98216.44
2018-12-27T19:44:48.963Z,98213.89
2018-12-27T19:47:54.987Z,98215.38
2018-12-27T19:51:00.285Z,98219.42
2018-12-27T19:54:05.773Z,98219.22
2018-12-27T19:57:11.073Z,98220.23
2018-12-27T20:00:16.743Z,98225.50
2018-12-27T20:03:22.088Z,98234.32
2018-12-27T20:06:27.480Z,98225.43
2018-12-27T20:09:33.056Z,98232.28
2018-12-27T20:12:38.449Z,98228.95
2018-12-27T20:15:43.724Z,98230.75
2018-12-27T20:18:49.173Z,98230.53
2018-12-27T20:21:54.453Z,98227.06
2018-12-27T20:25:00.152Z,98225.98
2018-12-27T20:28:05.533Z,98227.17
2018-12-27T20:31:11.131Z,98226.86
2018-12-27T20:34:16.411Z,98224.86
2018-12-27T20:37:21.886Z,98228.44
2018-12-27T20:40:27.229Z,98228.97
2018-12-27T20:43:32.616Z,98226.91
2018-12-27T20:46:37.899Z,98225.95
2018-12-27T20:49:43.263Z,98225.20
2018-12-27T20:52:48.810Z,98221.16
2018-12-27T20:55:54.200Z,98226.52
2018-12-27T20:58:59.479Z,98221.78
2018-12-27T21:02:05.195Z,98224.28
2018-12-27T21:05:10.477Z,98229.15
2018-12-27T21:08:15.846Z,98218.92
2018-12-27T21:11:21.126Z,98214.11
2018-12-27T21:14:26.578Z,98220.69
2018-12-27T21:17:31.863Z,98220.69
2018-12-27T21:20:37.279Z,98206.22
2018-12-27T21:23:42.599Z,98209.80
2018-12-27T21:26:48.054Z,98204.16
2018-12-27T21:29:53.411Z,98202.45
2018-12-27T21:32:58.847Z,98194.02
2018-12-27T21:36:04.130Z,98191.92
2018-12-27T21:39:09.606Z,98190.52
2018-12-27T21:42:14.910Z,98183.19
2018-12-27T21:45:20.339Z,98184.33
2018-12-27T21:48:25.618Z,98181.40
2018-12-27T21:51:31.280Z,98179.69
2018-12-27T21:54:36.567Z,98166.54
2018-12-27T21:57:42.021Z,98169.17
2018-12-27T22:00:47.303Z,98172.19
2018-12-27T22:03:52.809Z,98165.61
2018-12-27T22:06:58.087Z,98169.47
2018-12-27T22:10:03.702Z,98168.24
2018-12-27T22:13:08.993Z,98162.20
2018-12-27T22:16:14.594Z,98152.55
2018-12-27T22:19:19.875Z,98154.88
2018-12-27T22:22:25.283Z,98150.84
2018-12-27T22:25:30.609Z,98152.25
2018-12-27T22:28:36.016Z,98161.84
2018-12-27T22:31:41.294Z,98148.30
2018-12-27T22:34:46.772Z,98153.56
2018-12-27T22:37:52.045Z,98152.64
2018-12-27T22:40:57.556Z,98150.84
2018-12-27T22:44:02.829Z,98167.85
2018-12-27T22:47:08.500Z,98161.45
2018-12-27T22:50:13.781Z,98150.75
2018-12-27T22:53:19.239Z,98156.02
2018-12-27T22:56:24.665Z,98155.92
2018-12-27T22:59:30.088Z,98153.69
2018-12-27T23:02:35.367Z,98163.82
2018-12-27T23:05:40.726Z,98159.42
2018-12-27T23:08:46.008Z,98161.13
2018-12-27T23:11:51.413Z,98163.38
2018-12-27T23:14:56.684Z,98166.54
2018-12-27T23:18:02.101Z,98162.98
2018-12-27T23:21:07.373Z,98164.30
2018-12-27T23:24:12.788Z,98149.05
2018-12-27T23:27:18.078Z,98147.20
2018-12-27T23:30:23.482Z,98145.88
2018-12-27T23:33:28.757Z,98146.27
2018-12-27T23:36:34.116Z,98138.38
2018-12-27T23:39:39.388Z,98139.13
2018-12-27T23:42:44.961Z,98137.81
2018-12-27T23:45:50.232Z,98130.31
2018-12-27T23:48:55.655Z,98118.86
2018-12-27T23:52:00.930Z,98115.30
2018-12-27T23:55:06.531Z,98119.61
2018-12-27T23:58:11.809Z,98116.97
